»·PEaware :: N722PN KSNA-KWJF

N722PN :: KSNA-KWJF

FLIGHT INFORMATION

Flight Status: Arrived
Operator: Privately registered:
United States
More flights under this callsign
Pilot: Alec D. (17934)
Aircraft: CESSNA 441 CONQUEST 2
(C441)
More flights by this aircraft type
Origin: KSNA John Wayne-Orange Co
United States
Destination: KWJF Gen Fox
United States
More flights between these airports :: More routes between these airports
Route: MUSEL8 SLI V459 BERRI PMD
File this flight plan on PilotEdge
Remarks:
Altitude:
(Current/Filed)
8,000ft
Speed:
(Current/Filed)
270kts
Departed: 13-May-19 05:35 PM
Arrived: 13-May-19 06:00 PM
Distance/Time
Traveled:
66nm/0:25
Distance/Time
To Go:
Arrived

Flight Plot

Page will automatically refresh every two minutes.


Map Options




Map Legend


Flown Route
Filed Route
Departure Airport
Arrival Airport
Navaid (VOR, NDB)
Fix

Horizontal Profiles

Position Reports

Time Latitude Longitude Heading Altitude Ground
Speed
13-May-19 16:59 33.666435 -117.873047 219 59ft 0kts
13-May-19 17:00 33.666435 -117.873047 219 59ft 0kts
13-May-19 17:01 33.666435 -117.873047 219 59ft 0kts
13-May-19 17:02 33.666435 -117.873047 219 59ft 0kts
13-May-19 17:03 33.666435 -117.873047 219 59ft 0kts
13-May-19 17:04 33.666435 -117.873047 219 59ft 0kts
13-May-19 17:05 33.666435 -117.873047 219 59ft 0kts
13-May-19 17:06 33.666434 -117.873048 219 59ft 0kts
13-May-19 17:07 33.666434 -117.873048 219 59ft 0kts
13-May-19 17:08 33.666434 -117.873048 219 59ft 0kts
13-May-19 17:13 33.666435 -117.873047 219 59ft 0kts
13-May-19 17:14 33.666435 -117.873047 219 59ft 0kts
13-May-19 17:15 33.666435 -117.873047 219 59ft 0kts
13-May-19 17:16 33.666433 -117.873049 219 59ft 0kts
13-May-19 17:17 33.666429 -117.873053 219 59ft 0kts
13-May-19 17:18 33.666424 -117.873058 219 59ft 0kts
13-May-19 17:19 33.666419 -117.873063 219 59ft 0kts
13-May-19 17:20 33.666415 -117.873067 219 59ft 0kts
13-May-19 17:21 33.666410 -117.873072 219 59ft 0kts
13-May-19 17:22 33.666405 -117.873076 219 59ft 0kts
13-May-19 17:23 33.666401 -117.873080 219 59ft 0kts
13-May-19 17:24 33.666396 -117.873085 218 59ft 0kts
13-May-19 17:25 33.666391 -117.873090 218 59ft 0kts
13-May-19 17:26 33.666386 -117.873094 218 59ft 0kts
13-May-19 17:27 33.666409 -117.873353 357 59ft 9kts
13-May-19 17:28 33.668685 -117.874668 26 59ft 12kts
13-May-19 17:29 33.673053 -117.872073 28 59ft 15kts
13-May-19 17:30 33.676276 -117.870161 26 59ft 20kts
13-May-19 17:31 33.680155 -117.867840 26 59ft 19kts
13-May-19 17:32 33.680877 -117.866548 117 59ft 0kts
13-May-19 17:33 33.680874 -117.866541 117 59ft 0kts
13-May-19 17:34 33.678523 -117.867064 207 59ft 59kts
13-May-19 17:35 33.646044 -117.885497 197 1309ft 158kts
13-May-19 17:36 33.599443 -117.892713 188 3378ft 176kts
13-May-19 17:37 33.584990 -117.937900 301 5379ft 179kts
13-May-19 17:38 33.627176 -117.970323 330 7404ft 182kts
13-May-19 17:39 33.678749 -117.999218 333 8011ft 230kts
13-May-19 17:40 33.739455 -118.031495 334 8000ft 246kts
13-May-19 17:41 33.802303 -118.065278 332 7994ft 246kts
13-May-19 17:42 33.863971 -118.100981 332 7995ft 248kts
13-May-19 17:43 33.926195 -118.136940 332 7993ft 248kts
13-May-19 17:44 33.988678 -118.172974 332 7997ft 250kts
13-May-19 17:45 34.051273 -118.209088 332 7991ft 247kts
13-May-19 17:46 34.113333 -118.244958 332 7995ft 250kts
13-May-19 17:47 34.175904 -118.281139 332 8006ft 249kts
13-May-19 17:48 34.243328 -118.269839 20 8017ft 255kts
13-May-19 17:49 34.308375 -118.235844 22 8009ft 255kts
13-May-19 17:50 34.373360 -118.201362 22 8003ft 255kts
13-May-19 17:51 34.438114 -118.167061 22 7999ft 253kts
13-May-19 17:52 34.502567 -118.132919 22 8004ft 254kts
13-May-19 17:53 34.566964 -118.098727 22 8018ft 245kts
13-May-19 17:54 34.627515 -118.079558 334 7919ft 223kts
13-May-19 17:55 34.686178 -118.112317 347 5732ft 230kts
13-May-19 17:56 34.747822 -118.127454 315 3994ft 200kts
13-May-19 17:57 34.753328 -118.174144 250 3107ft 131kts
13-May-19 17:58 34.742932 -118.211571 252 2357ft 85kts
13-May-19 17:59 34.740462 -118.218371 162 2351ft 0kts
13-May-19 18:00 34.739180 -118.217244 88 2351ft 4kts
13-May-19 18:01 34.739261 -118.216826 76 2351ft 0kts
13-May-19 18:02 34.739261 -118.216826 76 2351ft 0kts
13-May-19 18:03 34.739261 -118.216826 76 2351ft 0kts
13-May-19 18:04 34.739261 -118.216826 76 2351ft 0kts
13-May-19 18:05 34.739261 -118.216826 76 2351ft 0kts
13-May-19 18:06 34.739261 -118.216826 76 2351ft 0kts
13-May-19 18:07 34.739261 -118.216826 76 2351ft 0kts
13-May-19 18:08 34.739261 -118.216826 76 2351ft 0kts

Navigation Log

Ident Type
Flight plan parsing failed, navigation log unavailable